Time;durP1;ratioP1;P1;durP2;ratioP2;P2;SDS_P1;SDS_P2;PMS_P1;PMS_P2;Temp;Humidity;BMP_temperature;BMP_pressure;BME280_temperature;BME280_humidity;BME280_pressure;Samples;Min_cycle;Max_cycle;Signal;HPM_P1;HPM_P2
2023/02/14 00:01:15;;;;;;;11.82;5.65;;;;;;;;;;4970690;28;20058;-69
2023/02/14 00:03:40;;;;;;;12.45;5.32;;;;;;;;;;4950011;28;20116;-68
2023/02/14 00:06:10;;;;;;;15.43;5.70;;;;;;;;;;4967455;28;20023;-69
2023/02/14 00:08:36;;;;;;;14.10;5.82;;;;;;;;;;4967738;28;20306;-69
2023/02/14 00:11:02;;;;;;;12.43;5.53;;;;;;;;;;4969004;28;20118;-67
2023/02/14 00:13:27;;;;;;;11.48;6.43;;;;;;;;;;4968504;28;20030;-68
2023/02/14 00:15:53;;;;;;;10.68;5.85;;;;;;;;;;4966625;28;20424;-69
2023/02/14 00:18:18;;;;;;;11.57;5.95;;;;;;;;;;4962748;28;20026;-68
2023/02/14 00:20:43;;;;;;;10.95;5.97;;;;;;;;;;4968371;28;20034;-69
2023/02/14 00:23:08;;;;;;;9.33;5.23;;;;;;;;;;4970437;28;20512;-68
2023/02/14 00:25:34;;;;;;;14.67;5.27;;;;;;;;;;4969508;28;20321;-69
2023/02/14 00:27:59;;;;;;;10.63;6.17;;;;;;;;;;4952597;28;20266;-68
2023/02/14 00:30:24;;;;;;;12.80;6.30;;;;;;;;;;4972264;28;20281;-69
2023/02/14 00:32:49;;;;;;;14.17;5.83;;;;;;;;;;4974024;28;20064;-69
2023/02/14 00:35:14;;;;;;;8.47;5.20;;;;;;;;;;4972915;28;20841;-69
2023/02/14 00:37:40;;;;;;;11.95;5.57;;;;;;;;;;4973413;28;20286;-69
2023/02/14 00:40:05;;;;;;;9.95;5.15;;;;;;;;;;4974747;28;20019;-69
2023/02/14 00:42:31;;;;;;;12.38;5.70;;;;;;;;;;4974824;28;20501;-67
2023/02/14 00:44:56;;;;;;;13.20;5.73;;;;;;;;;;4973684;28;20073;-69
2023/02/14 00:47:21;;;;;;;16.50;6.25;;;;;;;;;;4969808;28;20368;-69
2023/02/14 00:49:46;;;;;;;14.93;5.47;;;;;;;;;;4973151;28;20025;-68
2023/02/14 00:52:11;;;;;;;14.63;6.43;;;;;;;;;;4973944;28;20027;-69
2023/02/14 00:54:36;;;;;;;14.67;8.00;;;;;;;;;;4957051;28;20769;-67
2023/02/14 00:57:02;;;;;;;16.20;6.13;;;;;;;;;;4974378;28;20294;-69
2023/02/14 00:59:27;;;;;;;11.25;5.95;;;;;;;;;;4974784;28;20035;-69
2023/02/14 01:01:52;;;;;;;10.18;5.72;;;;;;;;;;4975876;28;20043;-69
2023/02/14 01:04:17;;;;;;;11.23;5.72;;;;;;;;;;4975809;28;20041;-69
2023/02/14 01:06:42;;;;;;;15.02;6.25;;;;;;;;;;4972407;28;20030;-69
2023/02/14 01:09:08;;;;;;;11.33;6.60;;;;;;;;;;4974634;28;20486;-68
2023/02/14 01:11:33;;;;;;;13.93;6.00;;;;;;;;;;4977053;28;20276;-69
2023/02/14 01:13:58;;;;;;;12.80;6.22;;;;;;;;;;4974504;28;20093;-69
2023/02/14 01:16:24;;;;;;;10.88;6.07;;;;;;;;;;4972707;28;20026;-68
2023/02/14 01:18:50;;;;;;;11.00;5.68;;;;;;;;;;4979712;28;20090;-69
2023/02/14 01:21:17;;;;;;;9.73;5.90;;;;;;;;;;4973319;28;20472;-69
2023/02/14 01:23:43;;;;;;;18.05;6.22;;;;;;;;;;4980313;28;20030;-69
2023/02/14 01:26:08;;;;;;;12.93;6.00;;;;;;;;;;4976238;28;20026;-69
2023/02/14 01:28:34;;;;;;;15.60;6.82;;;;;;;;;;4979977;28;20380;-68
2023/02/14 01:31:06;;;;;;;12.65;6.05;;;;;;;;;;4975008;28;20027;-68
2023/02/14 01:33:31;;;;;;;17.08;6.68;;;;;;;;;;4977738;28;20449;-68
2023/02/14 01:35:57;;;;;;;15.20;6.97;;;;;;;;;;4974449;28;20106;-69
2023/02/14 01:38:22;;;;;;;15.98;6.22;;;;;;;;;;4981667;28;20261;-69
2023/02/14 01:40:47;;;;;;;14.18;6.55;;;;;;;;;;4976737;28;20717;-68
2023/02/14 01:43:15;;;;;;;11.87;6.00;;;;;;;;;;4977931;28;20031;-69
2023/02/14 01:45:41;;;;;;;14.20;6.75;;;;;;;;;;4976556;28;20294;-68
2023/02/14 01:48:07;;;;;;;14.33;6.90;;;;;;;;;;4979881;28;20027;-68
2023/02/14 01:50:34;;;;;;;19.70;7.07;;;;;;;;;;4979286;28;20285;-68
2023/02/14 01:53:05;;;;;;;12.00;6.72;;;;;;;;;;4979804;28;20027;-69
2023/02/14 01:55:35;;;;;;;14.75;6.55;;;;;;;;;;4971746;28;20490;-69
2023/02/14 01:58:03;;;;;;;14.02;7.63;;;;;;;;;;4978094;28;20034;-67
2023/02/14 02:03:12;;;;;;;13.43;6.45;;;;;;;;;;4980268;28;20047;-69
2023/02/14 02:05:40;;;;;;;17.38;7.53;;;;;;;;;;4976000;28;20023;-69
2023/02/14 02:08:05;;;;;;;12.00;6.57;;;;;;;;;;4977828;28;20033;-68
2023/02/14 02:10:30;;;;;;;13.63;7.35;;;;;;;;;;4979057;28;20102;-68
2023/02/14 02:12:58;;;;;;;14.13;7.00;;;;;;;;;;4981117;28;20038;-68
2023/02/14 02:15:25;;;;;;;13.90;7.15;;;;;;;;;;4979658;28;20336;-68
2023/02/14 02:18:10;;;;;;;24.70;7.90;;;;;;;;;;4974426;28;20023;-68
2023/02/14 02:20:54;;;;;;;22.63;7.65;;;;;;;;;;4975886;28;20415;-68
2023/02/14 02:23:19;;;;;;;18.95;7.85;;;;;;;;;;4977653;28;20054;-68
2023/02/14 02:26:02;;;;;;;16.00;7.50;;;;;;;;;;4972002;28;20054;-68
2023/02/14 02:28:42;;;;;;;15.50;6.53;;;;;;;;;;4975459;28;20034;-68
2023/02/14 02:31:13;;;;;;;17.90;7.63;;;;;;;;;;4968029;28;20074;-68
2023/02/14 02:33:59;;;;;;;19.08;7.90;;;;;;;;;;4981362;28;20444;-68
2023/02/14 02:36:24;;;;;;;17.63;7.90;;;;;;;;;;4977903;28;20109;-69
2023/02/14 02:38:54;;;;;;;17.83;7.85;;;;;;;;;;4959257;28;20105;-69
2023/02/14 02:41:38;;;;;;;15.07;8.05;;;;;;;;;;4977897;28;20266;-69
2023/02/14 02:44:19;;;;;;;15.57;7.55;;;;;;;;;;4975961;28;20023;-68
2023/02/14 02:46:46;;;;;;;15.88;7.95;;;;;;;;;;4973254;28;20110;-68
2023/02/14 02:55:11;;;;;;;20.75;7.95;;;;;;;;;;4977592;28;20049;-68
2023/02/14 02:57:38;;;;;;;18.40;8.23;;;;;;;;;;4978997;28;20026;-68
2023/02/14 03:00:04;;;;;;;18.00;7.80;;;;;;;;;;4974305;28;20019;-68
2023/02/14 03:02:32;;;;;;;18.38;8.60;;;;;;;;;;4957880;28;20018;-68
2023/02/14 03:04:59;;;;;;;18.88;9.57;;;;;;;;;;4976934;28;20373;-68
2023/02/14 03:07:33;;;;;;;15.25;8.88;;;;;;;;;;4961084;28;20446;-68
2023/02/14 03:09:59;;;;;;;21.88;9.27;;;;;;;;;;4978674;28;20035;-68
2023/02/14 03:12:33;;;;;;;14.77;8.07;;;;;;;;;;4982498;28;20026;-68
2023/02/14 03:15:17;;;;;;;17.42;8.35;;;;;;;;;;4976475;28;20035;-68
2023/02/14 03:17:51;;;;;;;18.77;8.63;;;;;;;;;;4979844;28;20030;-68
2023/02/14 03:20:22;;;;;;;24.45;8.85;;;;;;;;;;4981246;28;20472;-68
2023/02/14 03:23:05;;;;;;;20.65;8.68;;;;;;;;;;4979272;28;20380;-69
2023/02/14 03:25:46;;;;;;;18.92;8.43;;;;;;;;;;4976875;28;20030;-68
2023/02/14 03:28:30;;;;;;;20.48;8.60;;;;;;;;;;4961116;28;20114;-68
2023/02/14 03:31:14;;;;;;;18.80;8.50;;;;;;;;;;4967440;28;20026;-68
2023/02/14 03:33:42;;;;;;;17.23;8.95;;;;;;;;;;4974082;28;20030;-68
2023/02/14 03:36:15;;;;;;;18.13;8.70;;;;;;;;;;4979231;28;20023;-68
2023/02/14 03:38:46;;;;;;;17.27;8.73;;;;;;;;;;4975361;28;20061;-68
2023/02/14 03:41:14;;;;;;;19.67;8.73;;;;;;;;;;4976307;28;20487;-68
2023/02/14 03:43:44;;;;;;;19.70;9.23;;;;;;;;;;4978813;28;20037;-68
2023/02/14 03:46:12;;;;;;;20.23;9.80;;;;;;;;;;4975495;28;20022;-68
2023/02/14 03:48:38;;;;;;;24.58;11.15;;;;;;;;;;4971253;28;20039;-68
2023/02/14 03:51:05;;;;;;;21.35;9.15;;;;;;;;;;4973025;28;20027;-68
2023/02/14 03:53:32;;;;;;;21.23;9.52;;;;;;;;;;4978321;28;20076;-68
2023/02/14 03:56:00;;;;;;;29.08;10.68;;;;;;;;;;4975776;28;20362;-68
2023/02/14 03:58:27;;;;;;;19.27;9.30;;;;;;;;;;4975756;28;20042;-68
2023/02/14 04:00:56;;;;;;;23.42;10.27;;;;;;;;;;4975137;28;21048;-68
2023/02/14 04:03:22;;;;;;;26.13;9.95;;;;;;;;;;4980353;28;20018;-68
2023/02/14 04:05:51;;;;;;;16.50;8.60;;;;;;;;;;4957833;28;20053;-68
2023/02/14 04:08:20;;;;;;;17.65;8.88;;;;;;;;;;4976940;28;20025;-68
2023/02/14 04:10:45;;;;;;;23.70;10.48;;;;;;;;;;4975038;28;20702;-68
2023/02/14 04:13:10;;;;;;;21.23;9.75;;;;;;;;;;4979919;28;20102;-68
2023/02/14 04:15:35;;;;;;;25.15;9.55;;;;;;;;;;4974741;28;20069;-68
2023/02/14 04:20:58;;;;;;;19.45;9.85;;;;;;;;;;4951464;28;20082;-68
2023/02/14 04:23:23;;;;;;;20.95;10.07;;;;;;;;;;4978894;28;20050;-68
2023/02/14 04:25:48;;;;;;;26.30;10.47;;;;;;;;;;4975978;28;20482;-68
2023/02/14 04:28:13;;;;;;;25.40;11.07;;;;;;;;;;4959828;28;20274;-68
2023/02/14 04:30:39;;;;;;;22.83;10.88;;;;;;;;;;4978075;28;20475;-68
2023/02/14 04:33:04;;;;;;;21.00;10.18;;;;;;;;;;4974030;28;20077;-68
2023/02/14 04:35:29;;;;;;;23.05;9.77;;;;;;;;;;4982019;28;20096;-68
2023/02/14 04:37:54;;;;;;;25.42;10.20;;;;;;;;;;4974173;28;20026;-68
2023/02/14 04:40:20;;;;;;;23.30;10.20;;;;;;;;;;4978951;28;20038;-69
2023/02/14 04:42:45;;;;;;;23.40;10.68;;;;;;;;;;4974771;28;20427;-68
2023/02/14 04:45:11;;;;;;;22.27;10.32;;;;;;;;;;4979516;28;20061;-68
2023/02/14 04:47:36;;;;;;;22.73;10.50;;;;;;;;;;4978486;28;20109;-68
2023/02/14 04:50:02;;;;;;;27.63;11.82;;;;;;;;;;4974071;28;20073;-68
2023/02/14 04:52:27;;;;;;;23.98;11.40;;;;;;;;;;4981671;28;20066;-68
2023/02/14 04:54:52;;;;;;;20.90;10.98;;;;;;;;;;4983989;28;20030;-68
2023/02/14 04:57:17;;;;;;;22.30;10.63;;;;;;;;;;4979329;28;20556;-68
2023/02/14 04:59:42;;;;;;;23.70;9.70;;;;;;;;;;4981603;28;20015;-68
2023/02/14 05:02:08;;;;;;;20.45;10.70;;;;;;;;;;4960814;28;20029;-68
2023/02/14 05:04:33;;;;;;;25.55;11.55;;;;;;;;;;4983079;28;20071;-68
2023/02/14 05:06:58;;;;;;;27.15;11.75;;;;;;;;;;4975878;28;20118;-68
2023/02/14 05:09:23;;;;;;;23.42;11.15;;;;;;;;;;4985147;28;20077;-68
2023/02/14 05:11:48;;;;;;;22.50;10.73;;;;;;;;;;4962123;28;20019;-68
2023/02/14 05:14:14;;;;;;;25.58;11.27;;;;;;;;;;4962581;28;20316;-68
2023/02/14 05:16:39;;;;;;;25.15;10.25;;;;;;;;;;4974922;28;20105;-68
2023/02/14 05:19:04;;;;;;;27.73;11.65;;;;;;;;;;4982969;28;20497;-68
2023/02/14 05:21:31;;;;;;;23.15;9.73;;;;;;;;;;4982979;28;20639;-68
2023/02/14 05:23:57;;;;;;;22.55;10.93;;;;;;;;;;4979364;28;20384;-68
2023/02/14 05:26:22;;;;;;;26.75;11.13;;;;;;;;;;4980183;28;20022;-68
2023/02/14 05:28:47;;;;;;;21.40;10.45;;;;;;;;;;4966849;28;20490;-68
2023/02/14 05:31:13;;;;;;;28.15;12.27;;;;;;;;;;4978634;28;20480;-68
2023/02/14 05:33:38;;;;;;;25.63;11.67;;;;;;;;;;4974517;28;20026;-68
2023/02/14 05:36:03;;;;;;;26.33;11.03;;;;;;;;;;4977354;28;20361;-68
2023/02/14 05:38:29;;;;;;;24.00;10.75;;;;;;;;;;4979051;28;20286;-68
2023/02/14 05:40:54;;;;;;;22.88;11.07;;;;;;;;;;4983603;28;20026;-68
2023/02/14 05:43:20;;;;;;;24.70;11.10;;;;;;;;;;4985103;28;20026;-68
2023/02/14 05:45:45;;;;;;;25.63;11.60;;;;;;;;;;4973695;28;20340;-68
2023/02/14 05:48:10;;;;;;;25.35;11.25;;;;;;;;;;4978096;28;20033;-68
2023/02/14 05:50:35;;;;;;;24.92;11.25;;;;;;;;;;4985952;28;20483;-68
2023/02/14 05:53:00;;;;;;;28.23;10.85;;;;;;;;;;4982205;28;20538;-68
2023/02/14 05:55:26;;;;;;;27.90;12.30;;;;;;;;;;4977233;28;20030;-68
2023/02/14 05:57:51;;;;;;;30.70;11.38;;;;;;;;;;4978836;28;20577;-68
2023/02/14 06:00:16;;;;;;;23.05;10.85;;;;;;;;;;4980654;28;20075;-68
2023/02/14 06:02:42;;;;;;;28.58;12.32;;;;;;;;;;4982441;28;20018;-68
2023/02/14 06:05:07;;;;;;;33.65;13.60;;;;;;;;;;4977802;28;20023;-68
2023/02/14 06:07:32;;;;;;;28.13;13.60;;;;;;;;;;4971526;28;20018;-68
2023/02/14 06:09:57;;;;;;;40.53;15.30;;;;;;;;;;4980515;28;20109;-68
2023/02/14 06:12:22;;;;;;;37.93;13.93;;;;;;;;;;4978492;28;20332;-68
2023/02/14 06:14:47;;;;;;;32.38;12.85;;;;;;;;;;4981632;28;20789;-68
2023/02/14 06:17:13;;;;;;;35.92;13.98;;;;;;;;;;4964029;28;20023;-68
2023/02/14 06:19:38;;;;;;;30.27;13.27;;;;;;;;;;4977675;28;20026;-68
2023/02/14 06:22:03;;;;;;;33.30;12.90;;;;;;;;;;4957782;28;20027;-68
2023/02/14 06:24:29;;;;;;;33.88;13.05;;;;;;;;;;4971423;28;20061;-68
2023/02/14 06:26:54;;;;;;;36.65;14.02;;;;;;;;;;4968196;28;20047;-68
2023/02/14 06:29:19;;;;;;;31.50;15.37;;;;;;;;;;4969974;28;20090;-68
2023/02/14 06:31:44;;;;;;;36.45;15.80;;;;;;;;;;4973679;28;20289;-69
2023/02/14 06:34:10;;;;;;;32.10;13.25;;;;;;;;;;4973231;28;20065;-68
2023/02/14 06:36:35;;;;;;;40.28;15.57;;;;;;;;;;4968540;28;20503;-68
2023/02/14 06:39:00;;;;;;;32.95;14.63;;;;;;;;;;4965392;28;21127;-68
2023/02/14 06:41:25;;;;;;;33.50;14.43;;;;;;;;;;4978015;28;20033;-68
2023/02/14 06:43:50;;;;;;;33.05;13.68;;;;;;;;;;4950324;28;20638;-68
2023/02/14 06:46:16;;;;;;;37.40;13.90;;;;;;;;;;4961950;28;20023;-68
2023/02/14 06:48:41;;;;;;;37.03;14.80;;;;;;;;;;4966283;28;20019;-68
2023/02/14 06:51:07;;;;;;;39.92;15.38;;;;;;;;;;4971200;28;20022;-68
2023/02/14 06:53:32;;;;;;;32.58;14.43;;;;;;;;;;4978350;28;20026;-68
2023/02/14 06:55:57;;;;;;;38.17;14.48;;;;;;;;;;4974208;28;20027;-68
2023/02/14 06:58:22;;;;;;;34.50;14.85;;;;;;;;;;4968811;28;20094;-68
2023/02/14 07:00:48;;;;;;;44.63;16.50;;;;;;;;;;4973489;28;20038;-68
2023/02/14 07:03:13;;;;;;;38.92;17.35;;;;;;;;;;4950912;28;20125;-68
2023/02/14 07:05:38;;;;;;;41.42;16.38;;;;;;;;;;4965720;28;20026;-68
2023/02/14 07:08:06;;;;;;;40.42;15.38;;;;;;;;;;4970304;28;20027;-68
2023/02/14 07:10:31;;;;;;;42.20;15.65;;;;;;;;;;4980540;28;20538;-68
2023/02/14 07:12:56;;;;;;;39.72;16.70;;;;;;;;;;4976218;28;20026;-68
2023/02/14 07:15:22;;;;;;;44.45;16.67;;;;;;;;;;4961457;28;20081;-68
2023/02/14 07:17:47;;;;;;;48.55;16.23;;;;;;;;;;4974973;28;20025;-68
2023/02/14 07:20:12;;;;;;;47.47;17.73;;;;;;;;;;4981064;28;20348;-68
2023/02/14 07:22:38;;;;;;;45.05;16.02;;;;;;;;;;4965079;28;20366;-68
2023/02/14 07:25:03;;;;;;;35.33;16.45;;;;;;;;;;4965192;28;21586;-68
2023/02/14 07:27:28;;;;;;;38.20;17.17;;;;;;;;;;4965814;28;20034;-69
2023/02/14 07:29:54;;;;;;;48.80;17.55;;;;;;;;;;4966160;28;20162;-69
2023/02/14 07:32:19;;;;;;;42.83;17.23;;;;;;;;;;4968941;28;20053;-69
2023/02/14 07:34:44;;;;;;;42.50;17.17;;;;;;;;;;4974924;28;20157;-69
2023/02/14 07:37:09;;;;;;;37.33;15.45;;;;;;;;;;4971488;28;20775;-69
2023/02/14 07:39:34;;;;;;;36.55;15.73;;;;;;;;;;4979712;28;20085;-69
2023/02/14 07:42:00;;;;;;;33.42;15.73;;;;;;;;;;4971019;28;20019;-69
2023/02/14 07:44:26;;;;;;;29.97;14.17;;;;;;;;;;4984057;28;20476;-69
2023/02/14 07:46:51;;;;;;;27.33;12.23;;;;;;;;;;4962482;28;20281;-69
2023/02/14 07:49:16;;;;;;;23.27;8.90;;;;;;;;;;4963454;28;20035;-69
2023/02/14 07:51:41;;;;;;;36.03;16.10;;;;;;;;;;4971711;28;20262;-69
2023/02/14 07:54:06;;;;;;;28.45;12.70;;;;;;;;;;4971545;28;20294;-69
2023/02/14 07:56:32;;;;;;;34.83;12.50;;;;;;;;;;4966466;28;20121;-69
2023/02/14 07:58:57;;;;;;;30.88;14.80;;;;;;;;;;4970764;28;20121;-69
2023/02/14 08:01:22;;;;;;;28.02;13.55;;;;;;;;;;4973288;28;20744;-69
2023/02/14 08:03:48;;;;;;;13.30;6.10;;;;;;;;;;4970440;28;20546;-69
2023/02/14 08:06:14;;;;;;;30.80;14.93;;;;;;;;;;4968410;28;20064;-69
2023/02/14 08:08:39;;;;;;;28.30;13.43;;;;;;;;;;4972273;28;20051;-69
2023/02/14 08:11:04;;;;;;;26.03;11.07;;;;;;;;;;4974648;28;20054;-69
2023/02/14 08:13:29;;;;;;;30.35;13.63;;;;;;;;;;4969712;28;20274;-69
2023/02/14 08:16:04;;;;;;;34.23;14.17;;;;;;;;;;4965483;28;20018;-69
2023/02/14 08:18:30;;;;;;;32.95;15.18;;;;;;;;;;4963861;28;20282;-69
2023/02/14 08:20:55;;;;;;;35.30;16.40;;;;;;;;;;4965442;28;20191;-69
2023/02/14 08:23:21;;;;;;;33.43;14.60;;;;;;;;;;4971246;28;20121;-69
2023/02/14 08:25:47;;;;;;;28.98;14.20;;;;;;;;;;4974409;28;20304;-69
2023/02/14 08:28:15;;;;;;;36.13;14.25;;;;;;;;;;4983129;28;20038;-69
2023/02/14 08:30:41;;;;;;;33.40;14.77;;;;;;;;;;4979010;28;20022;-69
2023/02/14 08:33:06;;;;;;;31.27;10.48;;;;;;;;;;4983561;28;20053;-69
2023/02/14 08:35:31;;;;;;;30.83;13.32;;;;;;;;;;4981146;28;20102;-70
2023/02/14 08:37:57;;;;;;;18.15;9.90;;;;;;;;;;4976209;28;20109;-70
2023/02/14 08:40:22;;;;;;;32.03;14.83;;;;;;;;;;4985418;28;20027;-70
2023/02/14 08:42:47;;;;;;;23.30;10.35;;;;;;;;;;4967563;28;20332;-70
2023/02/14 08:45:13;;;;;;;27.58;11.65;;;;;;;;;;4984244;28;20440;-70
2023/02/14 08:47:39;;;;;;;20.70;9.95;;;;;;;;;;4982037;28;20030;-70
2023/02/14 08:50:05;;;;;;;21.58;10.55;;;;;;;;;;4983559;28;20019;-70
2023/02/14 08:52:30;;;;;;;22.08;9.45;;;;;;;;;;4973152;28;20027;-70
2023/02/14 08:54:55;;;;;;;26.20;13.38;;;;;;;;;;4978977;28;20121;-70
2023/02/14 08:57:21;;;;;;;25.80;10.88;;;;;;;;;;4977118;28;20026;-70
2023/02/14 08:59:46;;;;;;;25.85;11.52;;;;;;;;;;4973305;28;20027;-70
2023/02/14 09:02:12;;;;;;;18.23;7.68;;;;;;;;;;4980685;28;20022;-70
2023/02/14 09:04:37;;;;;;;27.17;13.75;;;;;;;;;;4981292;28;20026;-70
2023/02/14 09:07:03;;;;;;;28.35;14.20;;;;;;;;;;4978405;28;20078;-70
2023/02/14 09:09:28;;;;;;;16.83;7.72;;;;;;;;;;4975183;28;20031;-70
2023/02/14 09:11:55;;;;;;;19.38;8.68;;;;;;;;;;4956074;28;20101;-70
2023/02/14 09:14:20;;;;;;;18.73;7.45;;;;;;;;;;4981091;28;20023;-70
2023/02/14 09:16:46;;;;;;;29.90;13.20;;;;;;;;;;4980834;28;20088;-70
2023/02/14 09:19:11;;;;;;;16.35;5.85;;;;;;;;;;4984855;28;20051;-70
2023/02/14 09:21:36;;;;;;;20.98;9.40;;;;;;;;;;4978914;28;20038;-70
2023/02/14 09:24:01;;;;;;;27.73;12.67;;;;;;;;;;4984164;28;20015;-70
2023/02/14 09:26:27;;;;;;;25.47;10.33;;;;;;;;;;4980547;28;20785;-70
2023/02/14 09:28:52;;;;;;;17.50;8.55;;;;;;;;;;4976087;28;20315;-70
2023/02/14 09:31:21;;;;;;;27.67;14.48;;;;;;;;;;4979401;28;20026;-70
2023/02/14 09:33:47;;;;;;;29.35;12.95;;;;;;;;;;4980553;28;20026;-70
2023/02/14 09:38:56;;;;;;;26.95;11.15;;;;;;;;;;4981815;28;20038;-70
2023/02/14 09:41:27;;;;;;;20.50;9.57;;;;;;;;;;4979166;28;20014;-70
2023/02/14 09:44:11;;;;;;;26.02;11.60;;;;;;;;;;4978053;28;20274;-70
2023/02/14 09:46:42;;;;;;;23.25;10.73;;;;;;;;;;4976320;28;20483;-70
2023/02/14 09:49:11;;;;;;;24.58;10.02;;;;;;;;;;4979800;28;20026;-70
2023/02/14 09:51:38;;;;;;;18.27;6.13;;;;;;;;;;4980171;28;20034;-70
2023/02/14 09:54:11;;;;;;;24.27;11.25;;;;;;;;;;4971612;28;20041;-70
2023/02/14 09:56:45;;;;;;;19.15;8.88;;;;;;;;;;4981214;28;20395;-70
2023/02/14 09:59:16;;;;;;;19.83;7.43;;;;;;;;;;4983816;28;20019;-70
2023/02/14 10:01:44;;;;;;;24.20;11.02;;;;;;;;;;4979938;28;20552;-70
2023/02/14 10:04:15;;;;;;;19.52;8.02;;;;;;;;;;4981936;28;20026;-70
2023/02/14 10:06:59;;;;;;;19.95;8.15;;;;;;;;;;4981325;28;20022;-70
2023/02/14 10:09:30;;;;;;;20.58;9.00;;;;;;;;;;4978778;28;20361;-69
2023/02/14 10:11:57;;;;;;;26.05;10.43;;;;;;;;;;4980166;28;20023;-69
2023/02/14 10:14:25;;;;;;;19.15;9.10;;;;;;;;;;4986035;28;20122;-70
2023/02/14 10:17:08;;;;;;;21.35;9.30;;;;;;;;;;4978533;28;20722;-69
2023/02/14 10:19:38;;;;;;;23.42;11.05;;;;;;;;;;4958736;28;20491;-69
2023/02/14 10:22:08;;;;;;;18.80;9.35;;;;;;;;;;4982175;28;20077;-70
2023/02/14 10:24:39;;;;;;;21.20;9.90;;;;;;;;;;4975122;28;20023;-69
2023/02/14 10:27:22;;;;;;;18.02;7.88;;;;;;;;;;4969691;28;20026;-69
2023/02/14 10:29:47;;;;;;;24.77;9.55;;;;;;;;;;4969929;28;20026;-70
2023/02/14 10:32:13;;;;;;;12.13;5.53;;;;;;;;;;4975678;28;20085;-70
2023/02/14 10:34:39;;;;;;;17.05;7.63;;;;;;;;;;4975275;28;20030;-70
2023/02/14 10:37:23;;;;;;;17.50;8.45;;;;;;;;;;4973718;28;20023;-69
2023/02/14 10:39:54;;;;;;;20.15;7.70;;;;;;;;;;4975759;28;20031;-69
2023/02/14 10:42:38;;;;;;;18.38;9.30;;;;;;;;;;4977957;28;20027;-69
2023/02/14 10:45:15;;;;;;;17.30;6.60;;;;;;;;;;4974829;28;20027;-69
2023/02/14 10:47:49;;;;;;;26.20;11.27;;;;;;;;;;4975522;28;20460;-70
2023/02/14 10:50:20;;;;;;;23.10;9.90;;;;;;;;;;4971033;28;20023;-70
2023/02/14 10:52:45;;;;;;;25.95;13.15;;;;;;;;;;4980390;28;20511;-70
2023/02/14 10:55:18;;;;;;;28.70;10.68;;;;;;;;;;4977826;28;20033;-70
2023/02/14 10:57:45;;;;;;;21.80;9.45;;;;;;;;;;4980477;28;20163;-70
2023/02/14 11:00:20;;;;;;;20.10;10.27;;;;;;;;;;4979347;28;20050;-70
2023/02/14 11:02:46;;;;;;;19.73;9.70;;;;;;;;;;4975774;28;20031;-69
2023/02/14 11:05:22;;;;;;;24.83;13.20;;;;;;;;;;4979639;28;20550;-69
2023/02/14 11:07:47;;;;;;;23.98;12.48;;;;;;;;;;4974726;28;20031;-69
2023/02/14 11:10:13;;;;;;;31.50;11.80;;;;;;;;;;4975179;28;20023;-70
2023/02/14 11:12:39;;;;;;;23.23;8.90;;;;;;;;;;4979421;28;20030;-70
2023/02/14 11:15:18;;;;;;;24.75;11.20;;;;;;;;;;4963996;28;20023;-70
2023/02/14 11:17:43;;;;;;;22.92;11.10;;;;;;;;;;4975908;28;20027;-70
2023/02/14 11:20:18;;;;;;;18.43;9.47;;;;;;;;;;4982045;28;20514;-70
2023/02/14 11:22:43;;;;;;;18.08;9.45;;;;;;;;;;4982876;28;20276;-70
2023/02/14 11:25:25;;;;;;;25.60;12.00;;;;;;;;;;4977394;28;20032;-70
2023/02/14 11:27:57;;;;;;;22.00;10.70;;;;;;;;;;4977379;28;20022;-70
2023/02/14 11:30:26;;;;;;;21.67;10.18;;;;;;;;;;4980400;28;20039;-70
2023/02/14 11:32:54;;;;;;;21.97;9.73;;;;;;;;;;4975749;28;20042;-70
2023/02/14 11:35:23;;;;;;;25.05;12.05;;;;;;;;;;4977737;28;20015;-70
2023/02/14 11:37:49;;;;;;;19.83;10.77;;;;;;;;;;4971649;28;20031;-70
2023/02/14 11:40:26;;;;;;;26.80;11.75;;;;;;;;;;4968632;28;20015;-70
2023/02/14 11:42:52;;;;;;;21.55;12.68;;;;;;;;;;4975073;28;20388;-70
2023/02/14 11:45:34;;;;;;;17.77;8.63;;;;;;;;;;4972768;28;20110;-70
2023/02/14 11:48:15;;;;;;;12.43;5.50;;;;;;;;;;4981593;28;20034;-70
2023/02/14 11:50:41;;;;;;;20.67;9.20;;;;;;;;;;4977449;28;20034;-70
2023/02/14 11:53:09;;;;;;;23.25;6.40;;;;;;;;;;4968654;28;20030;-70
2023/02/14 11:55:34;;;;;;;21.60;7.70;;;;;;;;;;4979052;28;20023;-70
2023/02/14 11:58:02;;;;;;;15.57;6.05;;;;;;;;;;4972542;28;20049;-70
2023/02/14 12:00:30;;;;;;;14.77;6.75;;;;;;;;;;4969724;28;20109;-70
2023/02/14 12:02:55;;;;;;;19.58;10.02;;;;;;;;;;4978662;28;20092;-70
2023/02/14 12:05:32;;;;;;;21.58;9.82;;;;;;;;;;4976830;28;20026;-70
2023/02/14 12:07:59;;;;;;;13.60;5.78;;;;;;;;;;4965793;28;20035;-70
2023/02/14 12:10:24;;;;;;;19.58;10.57;;;;;;;;;;4974028;28;20045;-70
2023/02/14 12:12:49;;;;;;;20.17;8.32;;;;;;;;;;4973446;28;20030;-70
2023/02/14 12:15:24;;;;;;;26.63;12.10;;;;;;;;;;4977855;28;20077;-70
2023/02/14 12:17:52;;;;;;;19.33;8.60;;;;;;;;;;4977087;28;20316;-70
2023/02/14 12:20:22;;;;;;;27.73;9.70;;;;;;;;;;4980825;28;20019;-70
2023/02/14 12:22:47;;;;;;;15.98;7.82;;;;;;;;;;4967780;28;20027;-70
2023/02/14 12:25:14;;;;;;;13.77;6.45;;;;;;;;;;4977586;28;20022;-70
2023/02/14 12:27:50;;;;;;;16.67;6.60;;;;;;;;;;4977631;28;20038;-70
2023/02/14 12:30:20;;;;;;;22.48;9.18;;;;;;;;;;4982568;28;20102;-70
2023/02/14 12:32:52;;;;;;;22.42;9.43;;;;;;;;;;4968248;28;20488;-70
2023/02/14 12:35:28;;;;;;;22.63;8.90;;;;;;;;;;4965919;28;20030;-70
2023/02/14 12:38:05;;;;;;;23.70;9.30;;;;;;;;;;4951729;28;20058;-70
2023/02/14 12:40:48;;;;;;;23.08;9.98;;;;;;;;;;4964362;28;20015;-70
2023/02/14 12:43:32;;;;;;;23.48;10.98;;;;;;;;;;4969122;28;20021;-70
2023/02/14 12:45:57;;;;;;;20.38;10.63;;;;;;;;;;4970220;28;20015;-70
2023/02/14 12:48:48;;;;;;;29.60;12.93;;;;;;;;;;4966331;28;20046;-70
2023/02/14 12:51:20;;;;;;;18.63;9.27;;;;;;;;;;4966932;28;20049;-70
2023/02/14 12:54:00;;;;;;;28.15;8.07;;;;;;;;;;4968375;28;20472;-70
2023/02/14 12:56:47;;;;;;;25.15;11.20;;;;;;;;;;4969152;28;20027;-70
2023/02/14 12:59:24;;;;;;;19.23;9.32;;;;;;;;;;4969617;28;20022;-70
2023/02/14 13:01:58;;;;;;;20.65;9.07;;;;;;;;;;4966497;28;20019;-70
2023/02/14 13:04:45;;;;;;;18.00;9.07;;;;;;;;;;4970580;28;20026;-69
2023/02/14 13:07:18;;;;;;;15.38;5.47;;;;;;;;;;4969584;28;20035;-69
2023/02/14 13:10:07;;;;;;;25.50;10.38;;;;;;;;;;4968706;28;20049;-69
2023/02/14 13:12:35;;;;;;;23.63;11.65;;;;;;;;;;4963295;28;20035;-70
2023/02/14 13:15:19;;;;;;;22.13;8.07;;;;;;;;;;4972480;28;20054;-69
2023/02/14 13:17:58;;;;;;;21.15;9.82;;;;;;;;;;4973388;28;20019;-69
2023/02/14 13:20:29;;;;;;;20.55;10.23;;;;;;;;;;4973404;28;20022;-69
2023/02/14 13:22:56;;;;;;;22.63;9.27;;;;;;;;;;4973717;28;20034;-69
2023/02/14 13:25:30;;;;;;;19.08;8.70;;;;;;;;;;4973241;28;20031;-69
2023/02/14 13:27:55;;;;;;;18.08;9.13;;;;;;;;;;4971592;28;20038;-69
2023/02/14 13:30:29;;;;;;;24.20;10.02;;;;;;;;;;4973149;28;20401;-69
2023/02/14 13:32:55;;;;;;;19.60;10.50;;;;;;;;;;4972538;28;20023;-69
2023/02/14 13:35:21;;;;;;;23.02;7.63;;;;;;;;;;4971001;28;20134;-70
2023/02/14 13:37:51;;;;;;;22.70;8.63;;;;;;;;;;4968903;28;20038;-70
2023/02/14 13:40:17;;;;;;;22.05;10.15;;;;;;;;;;4972353;28;20015;-69
2023/02/14 13:42:45;;;;;;;20.55;8.57;;;;;;;;;;4970893;28;20101;-69
2023/02/14 13:45:31;;;;;;;20.00;9.85;;;;;;;;;;4968987;28;20109;-69
2023/02/14 13:48:09;;;;;;;19.67;10.43;;;;;;;;;;4972082;28;20053;-69
2023/02/14 13:50:37;;;;;;;20.05;9.93;;;;;;;;;;4970203;28;20030;-70
2023/02/14 13:53:02;;;;;;;18.20;8.93;;;;;;;;;;4973479;28;20027;-69
2023/02/14 13:55:31;;;;;;;19.50;10.23;;;;;;;;;;4972913;28;20049;-69
2023/02/14 13:58:25;;;;;;;17.83;9.52;;;;;;;;;;4971709;28;20114;-69
2023/02/14 14:00:51;;;;;;;18.77;8.40;;;;;;;;;;4952098;28;20038;-69
2023/02/14 14:03:16;;;;;;;18.98;9.43;;;;;;;;;;4974456;28;20022;-69
2023/02/14 14:05:42;;;;;;;23.38;10.25;;;;;;;;;;4970396;28;20645;-69
2023/02/14 14:08:19;;;;;;;19.60;9.70;;;;;;;;;;4974786;28;20027;-69
2023/02/14 14:10:49;;;;;;;18.98;10.23;;;;;;;;;;4970384;28;20118;-69
2023/02/14 14:13:32;;;;;;;24.30;10.00;;;;;;;;;;4971849;28;20384;-69
2023/02/14 14:16:16;;;;;;;19.70;10.32;;;;;;;;;;4971410;28;20031;-69
2023/02/14 14:18:44;;;;;;;16.45;8.68;;;;;;;;;;4968824;28;20098;-69
2023/02/14 14:21:26;;;;;;;19.67;9.18;;;;;;;;;;4969474;28;20031;-68
2023/02/14 14:24:10;;;;;;;19.95;9.88;;;;;;;;;;4968043;28;20031;-69
2023/02/14 14:26:38;;;;;;;23.02;9.93;;;;;;;;;;4968608;28;20041;-69
2023/02/14 14:29:11;;;;;;;20.98;10.07;;;;;;;;;;4972384;28;20034;-69
2023/02/14 14:31:36;;;;;;;17.80;9.50;;;;;;;;;;4969746;28;20054;-69
2023/02/14 14:34:01;;;;;;;18.93;8.93;;;;;;;;;;4970155;28;20057;-69
2023/02/14 14:36:27;;;;;;;16.70;8.50;;;;;;;;;;4971467;28;20289;-69
2023/02/14 14:38:53;;;;;;;17.95;7.70;;;;;;;;;;4971845;28;20030;-69
2023/02/14 14:41:19;;;;;;;21.20;8.05;;;;;;;;;;4971308;28;20026;-69
2023/02/14 14:43:44;;;;;;;20.63;8.60;;;;;;;;;;4974316;28;20411;-69
2023/02/14 14:46:10;;;;;;;18.30;8.13;;;;;;;;;;4970939;28;20098;-69